createdAt,value
2018-12-25T00:01:40.482Z,89.08
2018-12-25T00:04:09.231Z,89.05
2018-12-25T00:06:37.843Z,89.15
2018-12-25T00:09:46.425Z,89.39
2018-12-25T00:12:15.058Z,89.37
2018-12-25T00:14:43.719Z,89.40
2018-12-25T00:17:12.346Z,89.58
2018-12-25T00:19:41.277Z,89.24
2018-12-25T00:22:09.919Z,89.62
2018-12-25T00:24:38.518Z,89.33
2018-12-25T00:27:07.281Z,89.46
2018-12-25T00:29:35.866Z,89.48
2018-12-25T00:32:04.547Z,89.61
2018-12-25T00:34:33.069Z,89.50
2018-12-25T00:37:01.895Z,89.22
2018-12-25T00:39:30.578Z,89.49
2018-12-25T00:41:59.222Z,89.32
2018-12-25T00:44:27.982Z,89.40
2018-12-25T00:46:56.690Z,89.23
2018-12-25T00:49:25.340Z,89.13
2018-12-25T00:51:53.922Z,89.62
2018-12-25T00:54:22.487Z,89.52
2018-12-25T00:56:51.078Z,89.49
2018-12-25T00:59:19.842Z,89.59
2018-12-25T01:01:48.854Z,89.77
2018-12-25T01:04:17.452Z,89.95
2018-12-25T01:06:46.027Z,90.22
2018-12-25T01:09:14.752Z,90.26
2018-12-25T01:11:43.427Z,90.20
2018-12-25T01:14:12.074Z,90.46
2018-12-25T01:16:40.645Z,90.90
2018-12-25T01:19:09.272Z,91.29
2018-12-25T01:21:37.996Z,91.88
2018-12-25T01:24:06.612Z,91.91
2018-12-25T01:26:35.309Z,92.12
2018-12-25T01:29:03.879Z,92.58
2018-12-25T01:31:32.632Z,93.01
2018-12-25T01:34:01.195Z,93.22
2018-12-25T01:36:29.833Z,93.48
2018-12-25T01:38:58.465Z,93.30
2018-12-25T01:41:27.189Z,93.62
2018-12-25T01:43:55.758Z,93.84
2018-12-25T01:46:24.507Z,93.90
2018-12-25T01:48:53.215Z,93.76
2018-12-25T01:51:21.852Z,94.06
2018-12-25T01:53:50.432Z,93.93
2018-12-25T01:56:19.010Z,94.00
2018-12-25T01:58:47.943Z,93.94
2018-12-25T02:01:16.761Z,94.32
2018-12-25T02:03:45.734Z,94.27
2018-12-25T02:06:14.436Z,94.10
2018-12-25T02:08:43.096Z,94.09
2018-12-25T02:11:11.569Z,94.37
2018-12-25T02:13:40.156Z,94.25
2018-12-25T02:16:08.743Z,94.36
2018-12-25T02:18:37.417Z,94.41
2018-12-25T02:21:06.439Z,94.47
2018-12-25T02:23:35.105Z,94.37
2018-12-25T02:26:43.662Z,94.42
2018-12-25T02:29:12.334Z,94.30
2018-12-25T02:31:41.336Z,94.41
2018-12-25T02:34:09.959Z,95.06
2018-12-25T02:36:38.554Z,95.03
2018-12-25T02:39:26.461Z,95.56
2018-12-25T02:41:55.134Z,95.84
2018-12-25T02:44:24.322Z,96.07
2018-12-25T02:46:53.119Z,96.10
2018-12-25T02:49:21.715Z,95.97
2018-12-25T02:51:50.694Z,96.60
2018-12-25T02:54:19.385Z,96.32
2018-12-25T02:56:48.110Z,96.39
2018-12-25T02:59:16.723Z,96.75
2018-12-25T03:01:45.865Z,96.65
2018-12-25T03:04:14.427Z,96.63
2018-12-25T03:06:43.086Z,96.57
2018-12-25T03:09:11.695Z,96.50
2018-12-25T03:11:40.318Z,97.03
2018-12-25T03:14:09.015Z,97.28
2018-12-25T03:16:38.531Z,97.28
2018-12-25T03:19:07.094Z,97.13
2018-12-25T03:21:35.732Z,97.19
2018-12-25T03:24:04.316Z,97.43
2018-12-25T03:26:33.239Z,97.42
2018-12-25T03:29:01.897Z,97.48
2018-12-25T03:31:30.537Z,97.58
2018-12-25T03:33:59.186Z,97.86
2018-12-25T03:36:27.704Z,97.86
2018-12-25T03:38:56.460Z,97.97
2018-12-25T03:41:25.123Z,97.64
2018-12-25T03:43:53.782Z,97.96
2018-12-25T03:46:22.380Z,97.93
2018-12-25T03:48:51.064Z,97.56
2018-12-25T03:51:19.751Z,97.35
2018-12-25T03:53:48.496Z,97.86
2018-12-25T03:56:17.126Z,98.04
2018-12-25T03:58:45.696Z,98.20
2018-12-25T04:01:14.449Z,98.14
2018-12-25T04:03:43.038Z,98.07
2018-12-25T04:06:11.701Z,97.83
2018-12-25T04:08:40.351Z,97.74
2018-12-25T04:11:09.007Z,97.82
2018-12-25T04:13:37.569Z,98.04
2018-12-25T04:16:06.246Z,98.21
2018-12-25T04:18:35.368Z,98.14
2018-12-25T04:21:04.025Z,98.27
2018-12-25T04:23:32.622Z,98.10
2018-12-25T04:26:01.200Z,98.01
2018-12-25T04:28:29.774Z,98.04
2018-12-25T04:30:58.385Z,97.96
2018-12-25T04:33:27.009Z,97.87
2018-12-25T04:35:55.596Z,97.74
2018-12-25T04:38:24.244Z,97.70
2018-12-25T04:40:52.956Z,97.25
2018-12-25T04:43:21.485Z,97.11
2018-12-25T04:45:50.041Z,97.11
2018-12-25T04:48:18.601Z,96.89
2018-12-25T04:50:47.292Z,96.91
2018-12-25T04:53:15.995Z,96.76
2018-12-25T04:55:44.738Z,96.92
2018-12-25T04:58:13.296Z,96.24
2018-12-25T05:00:41.972Z,96.27
2018-12-25T05:03:10.502Z,96.13
2018-12-25T05:05:39.491Z,96.03
2018-12-25T05:08:08.057Z,96.03
2018-12-25T05:10:36.694Z,95.78
2018-12-25T05:13:05.228Z,95.97
2018-12-25T05:15:33.938Z,95.90
2018-12-25T05:18:02.400Z,95.94
2018-12-25T05:20:37.804Z,96.12
2018-12-25T05:23:01.468Z,96.28
2018-12-25T05:25:29.997Z,96.22
2018-12-25T05:27:58.608Z,96.03
2018-12-25T05:30:27.178Z,96.04
2018-12-25T05:32:55.855Z,95.97
2018-12-25T05:35:24.761Z,95.73
2018-12-25T05:37:53.282Z,95.95
2018-12-25T05:40:21.940Z,95.67
2018-12-25T05:42:50.521Z,95.46
2018-12-25T05:45:19.102Z,95.42
2018-12-25T05:47:47.725Z,94.86
2018-12-25T05:50:16.413Z,94.47
2018-12-25T05:52:45.059Z,94.60
2018-12-25T05:55:13.676Z,94.06
2018-12-25T05:57:42.380Z,94.17
2018-12-25T06:00:11.098Z,93.92
2018-12-25T06:02:39.727Z,93.79
2018-12-25T06:05:08.570Z,93.54
2018-12-25T06:07:37.133Z,93.49
2018-12-25T06:10:05.808Z,93.47
2018-12-25T06:12:34.399Z,92.95
2018-12-25T06:15:03.016Z,92.58
2018-12-25T06:17:31.670Z,93.12
2018-12-25T06:20:00.272Z,92.08
2018-12-25T06:22:29.198Z,91.96
2018-12-25T06:24:57.758Z,91.79
2018-12-25T06:27:26.468Z,91.61
2018-12-25T06:29:55.170Z,91.79
2018-12-25T06:32:23.766Z,91.73
2018-12-25T06:34:52.405Z,91.44
2018-12-25T06:37:21.337Z,91.11
2018-12-25T06:39:50.064Z,90.55
2018-12-25T06:42:18.544Z,90.92
2018-12-25T06:45:06.538Z,91.69
2018-12-25T06:47:35.331Z,91.01
2018-12-25T06:50:03.956Z,90.50
2018-12-25T06:52:32.561Z,90.48
2018-12-25T06:55:01.279Z,90.89
2018-12-25T06:57:30.273Z,90.99
2018-12-25T06:59:59.036Z,89.89
2018-12-25T07:02:27.807Z,89.42
2018-12-25T07:04:56.478Z,89.64
2018-12-25T07:07:25.089Z,89.53
2018-12-25T07:09:53.703Z,90.14
2018-12-25T07:12:22.360Z,89.88
2018-12-25T07:14:50.920Z,89.64
2018-12-25T07:17:19.655Z,89.91
2018-12-25T07:19:48.251Z,90.06
2018-12-25T07:22:16.770Z,90.03
2018-12-25T07:24:45.314Z,89.86
2018-12-25T07:27:14.100Z,90.70
2018-12-25T07:29:42.785Z,90.97
2018-12-25T07:32:11.395Z,91.59
2018-12-25T07:34:39.925Z,92.09
2018-12-25T07:37:08.449Z,92.71
2018-12-25T07:39:37.055Z,93.29
2018-12-25T07:42:05.663Z,93.43
2018-12-25T07:44:34.317Z,93.39
2018-12-25T07:47:02.976Z,93.66
2018-12-25T07:49:31.549Z,93.88
2018-12-25T07:52:00.148Z,94.25
2018-12-25T07:54:28.838Z,94.49
2018-12-25T07:56:57.475Z,94.79
2018-12-25T07:59:26.168Z,94.90
2018-12-25T08:01:54.798Z,95.04
2018-12-25T08:04:23.430Z,95.03
2018-12-25T08:06:52.144Z,94.58
2018-12-25T08:09:20.732Z,94.64
2018-12-25T08:11:49.472Z,94.50
2018-12-25T08:14:18.418Z,94.53
2018-12-25T08:16:47.048Z,94.57
2018-12-25T08:19:15.780Z,94.26
2018-12-25T08:21:44.425Z,94.03
2018-12-25T08:24:12.940Z,93.79
2018-12-25T08:26:41.601Z,93.57
2018-12-25T08:29:10.202Z,93.70
2018-12-25T08:31:39.167Z,93.37
2018-12-25T08:34:07.798Z,92.88
2018-12-25T08:36:36.620Z,92.83
2018-12-25T08:39:45.164Z,92.20
2018-12-25T08:42:13.633Z,92.51
2018-12-25T08:44:42.305Z,91.96
2018-12-25T08:47:11.662Z,91.47
2018-12-25T08:49:41.278Z,91.95
2018-12-25T08:52:09.900Z,91.00
2018-12-25T08:54:38.615Z,91.23
2018-12-25T08:57:07.307Z,90.50
2018-12-25T08:59:35.988Z,90.34
2018-12-25T09:02:04.636Z,90.26
2018-12-25T09:04:33.178Z,90.29
2018-12-25T09:07:01.800Z,90.18
2018-12-25T09:09:30.515Z,89.26
2018-12-25T09:11:59.144Z,88.68
2018-12-25T09:14:27.749Z,88.56
2018-12-25T09:16:56.376Z,89.39
2018-12-25T09:19:25.054Z,89.19
2018-12-25T09:21:53.641Z,89.35
2018-12-25T09:24:22.258Z,88.50
2018-12-25T09:26:50.916Z,88.06
2018-12-25T09:29:19.566Z,87.46
2018-12-25T09:31:48.222Z,87.55
2018-12-25T09:34:16.911Z,87.27
2018-12-25T09:36:45.394Z,87.48
2018-12-25T09:39:14.130Z,87.13
2018-12-25T09:41:42.687Z,87.83
2018-12-25T09:44:11.228Z,87.23
2018-12-25T09:46:39.950Z,87.60
2018-12-25T09:49:27.862Z,87.37
2018-12-25T09:51:56.491Z,87.35
2018-12-25T09:54:25.102Z,86.66
2018-12-25T09:56:53.894Z,86.36
2018-12-25T09:59:22.478Z,87.41
2018-12-25T10:01:51.048Z,86.73
2018-12-25T10:04:19.594Z,87.14
2018-12-25T10:06:48.383Z,86.07
2018-12-25T10:09:17.098Z,86.27
2018-12-25T10:11:45.695Z,86.42
2018-12-25T10:14:14.465Z,86.44
2018-12-25T10:16:43.061Z,86.10
2018-12-25T10:19:11.697Z,85.99
2018-12-25T10:21:40.226Z,85.67
2018-12-25T10:24:08.895Z,86.07
2018-12-25T10:26:37.447Z,86.04
2018-12-25T10:29:06.120Z,86.05
2018-12-25T10:31:34.619Z,85.88
2018-12-25T10:34:03.302Z,85.28
2018-12-25T10:36:31.839Z,85.37
2018-12-25T10:39:00.514Z,85.44
2018-12-25T10:41:29.155Z,85.79
2018-12-25T10:43:57.960Z,84.55
2018-12-25T10:46:26.605Z,84.79
2018-12-25T10:48:55.205Z,85.51
2018-12-25T10:51:24.342Z,85.24
2018-12-25T10:53:52.979Z,84.84
2018-12-25T10:56:21.570Z,85.19
2018-12-25T10:58:50.137Z,83.66
2018-12-25T11:01:18.623Z,83.94
2018-12-25T11:03:47.283Z,84.25
2018-12-25T11:06:16.029Z,84.05
2018-12-25T11:08:45.705Z,83.96
2018-12-25T11:11:14.420Z,84.02
2018-12-25T11:13:43.659Z,84.52
2018-12-25T11:16:12.161Z,83.48
2018-12-25T11:18:48.911Z,83.25
2018-12-25T11:21:21.513Z,83.79
2018-12-25T11:23:50.145Z,82.94
2018-12-25T11:26:18.760Z,82.83
2018-12-25T11:28:47.374Z,83.38
2018-12-25T11:31:15.939Z,83.50
2018-12-25T11:33:45.013Z,83.89
2018-12-25T11:36:13.667Z,83.68
2018-12-25T11:38:42.341Z,83.85
2018-12-25T11:41:10.964Z,84.27
2018-12-25T11:43:39.642Z,84.42
2018-12-25T11:46:08.418Z,84.74
2018-12-25T11:48:36.961Z,84.44
2018-12-25T11:51:05.710Z,84.71
2018-12-25T11:53:34.352Z,83.97
2018-12-25T11:56:03.072Z,84.22
2018-12-25T11:58:31.670Z,84.77
2018-12-25T12:01:00.364Z,83.99
2018-12-25T12:03:28.936Z,84.22
2018-12-25T12:05:57.606Z,84.10
2018-12-25T12:08:26.240Z,84.20
2018-12-25T12:10:54.928Z,84.59
2018-12-25T12:13:23.542Z,84.56
2018-12-25T12:15:52.232Z,84.27
2018-12-25T12:18:20.800Z,84.13
2018-12-25T12:20:49.555Z,84.14
2018-12-25T12:23:18.272Z,84.17
2018-12-25T12:25:46.739Z,84.14
2018-12-25T12:28:15.822Z,83.93
2018-12-25T12:30:44.711Z,83.58
2018-12-25T12:33:15.472Z,83.50
2018-12-25T12:35:43.832Z,83.88
2018-12-25T12:38:12.548Z,83.94
2018-12-25T12:40:42.733Z,84.08
2018-12-25T12:43:11.396Z,83.48
2018-12-25T12:45:40.070Z,83.58
2018-12-25T12:48:08.844Z,83.64
2018-12-25T12:50:37.489Z,83.88
2018-12-25T12:53:06.145Z,83.91
2018-12-25T12:55:34.747Z,83.87
2018-12-25T12:58:03.470Z,83.32
2018-12-25T13:00:32.043Z,83.14
2018-12-25T13:03:01.137Z,83.55
2018-12-25T13:05:29.839Z,82.94
2018-12-25T13:07:58.499Z,83.30
2018-12-25T13:10:27.084Z,83.61
2018-12-25T13:12:56.079Z,83.34
2018-12-25T13:15:24.800Z,83.10
2018-12-25T13:17:53.511Z,83.65
2018-12-25T13:20:22.204Z,83.50
2018-12-25T13:22:54.265Z,83.68
2018-12-25T13:25:21.298Z,83.76
2018-12-25T13:27:49.941Z,83.46
2018-12-25T13:30:18.599Z,83.62
2018-12-25T13:33:06.333Z,84.14
2018-12-25T13:35:35.015Z,83.61
2018-12-25T13:38:03.939Z,83.47
2018-12-25T13:40:32.566Z,84.05
2018-12-25T13:43:01.130Z,83.75
2018-12-25T13:45:30.211Z,83.37
2018-12-25T13:47:58.873Z,83.52
2018-12-25T13:50:27.481Z,83.74
2018-12-25T13:53:02.783Z,83.21
2018-12-25T13:55:26.726Z,83.35
2018-12-25T13:57:55.336Z,82.77
2018-12-25T14:00:23.970Z,82.93
2018-12-25T14:02:52.659Z,82.99
2018-12-25T14:05:40.862Z,82.98
2018-12-25T14:08:09.431Z,83.00
2018-12-25T14:10:37.981Z,83.04
2018-12-25T14:13:07.208Z,83.51
2018-12-25T14:15:35.986Z,83.52
2018-12-25T14:18:04.648Z,83.87
2018-12-25T14:20:33.567Z,83.65
2018-12-25T14:23:02.397Z,84.37
2018-12-25T14:25:31.103Z,84.15
2018-12-25T14:27:59.879Z,84.51
2018-12-25T14:30:28.400Z,84.43
2018-12-25T14:32:57.079Z,84.71
2018-12-25T14:35:25.745Z,84.80
2018-12-25T14:37:54.396Z,84.75
2018-12-25T14:40:23.147Z,84.85
2018-12-25T14:42:51.911Z,85.15
2018-12-25T14:45:20.554Z,85.33
2018-12-25T14:50:39.066Z,85.08
2018-12-25T14:53:07.740Z,84.79
2018-12-25T14:55:55.938Z,84.33
2018-12-25T14:58:43.707Z,84.28
2018-12-25T15:01:12.547Z,84.73
2018-12-25T15:03:41.305Z,84.36
2018-12-25T15:06:10.114Z,84.07
2018-12-25T15:08:38.771Z,84.15
2018-12-25T15:11:07.476Z,84.11
2018-12-25T15:13:36.137Z,84.02
2018-12-25T15:16:04.818Z,84.35
2018-12-25T15:18:33.710Z,84.42
2018-12-25T15:21:02.590Z,84.28
2018-12-25T15:23:31.397Z,84.14
2018-12-25T15:25:59.971Z,84.45
2018-12-25T15:28:28.657Z,84.28
2018-12-25T15:30:57.257Z,84.22
2018-12-25T15:33:26.011Z,84.04
2018-12-25T15:35:54.612Z,84.02
2018-12-25T15:38:23.356Z,83.87
2018-12-25T15:40:52.292Z,84.10
2018-12-25T15:43:21.075Z,83.97
2018-12-25T15:45:49.598Z,84.15
2018-12-25T15:48:18.333Z,84.34
2018-12-25T15:53:36.993Z,84.27
2018-12-25T15:56:19.202Z,84.74
2018-12-25T15:58:37.545Z,84.22
2018-12-25T16:01:06.233Z,84.13
2018-12-25T16:03:34.860Z,83.92
2018-12-25T16:06:03.474Z,83.88
2018-12-25T16:08:32.164Z,84.12
2018-12-25T16:11:00.808Z,83.87
2018-12-25T16:13:29.676Z,84.10
2018-12-25T16:15:58.506Z,84.02
2018-12-25T16:18:27.176Z,84.18
2018-12-25T16:20:55.900Z,83.91
2018-12-25T16:23:24.487Z,83.74
2018-12-25T16:25:53.252Z,83.79
2018-12-25T16:28:21.874Z,83.89
2018-12-25T16:30:50.467Z,83.54
2018-12-25T16:33:19.133Z,82.99
2018-12-25T16:35:47.772Z,83.39
2018-12-25T16:38:16.488Z,83.46
2018-12-25T16:40:45.133Z,83.29
2018-12-25T16:43:13.807Z,83.10
2018-12-25T16:45:42.395Z,83.40
2018-12-25T16:48:11.014Z,82.90
2018-12-25T16:50:40.263Z,82.91
2018-12-25T16:53:10.293Z,83.24
2018-12-25T16:55:38.896Z,83.34
2018-12-25T16:58:07.507Z,83.41
2018-12-25T17:00:36.270Z,83.13
2018-12-25T17:03:04.945Z,83.40
2018-12-25T17:05:33.541Z,83.38
2018-12-25T17:08:02.163Z,83.39
2018-12-25T17:10:30.765Z,83.02
2018-12-25T17:12:59.790Z,83.08
2018-12-25T17:15:28.579Z,82.95
2018-12-25T17:17:57.133Z,83.08
2018-12-25T17:20:25.665Z,83.51
2018-12-25T17:22:54.313Z,83.62
2018-12-25T17:25:23.035Z,83.01
2018-12-25T17:27:51.658Z,83.14
2018-12-25T17:31:00.277Z,82.99
2018-12-25T17:33:28.938Z,83.37
2018-12-25T17:35:57.744Z,83.19
2018-12-25T17:38:26.381Z,83.26
2018-12-25T17:40:55.007Z,82.40
2018-12-25T17:43:23.546Z,82.73
2018-12-25T17:45:52.115Z,82.71
2018-12-25T17:48:20.786Z,82.38
2018-12-25T17:50:50.035Z,82.33
2018-12-25T17:53:18.781Z,82.71
2018-12-25T17:55:47.362Z,82.51
2018-12-25T17:58:16.010Z,82.89
2018-12-25T18:00:44.659Z,82.26
2018-12-25T18:03:13.226Z,82.44
2018-12-25T18:05:41.981Z,82.39
2018-12-25T18:08:10.581Z,82.53
2018-12-25T18:10:39.221Z,82.59
2018-12-25T18:13:07.900Z,82.54
2018-12-25T18:15:36.930Z,82.69
2018-12-25T18:18:05.573Z,82.40
2018-12-25T18:20:34.258Z,82.40
2018-12-25T18:23:02.942Z,82.61
2018-12-25T18:25:31.660Z,82.73
2018-12-25T18:28:00.387Z,82.95
2018-12-25T18:30:29.239Z,83.16
2018-12-25T18:32:57.827Z,83.02
2018-12-25T18:35:26.335Z,82.40
2018-12-25T18:37:55.058Z,82.15
2018-12-25T18:40:23.764Z,82.07
2018-12-25T18:42:52.465Z,81.97
2018-12-25T18:45:21.478Z,82.24
2018-12-25T18:47:50.180Z,82.49
2018-12-25T18:50:18.963Z,82.14
2018-12-25T18:52:47.804Z,82.00
2018-12-25T18:55:16.523Z,82.19
2018-12-25T18:57:45.108Z,81.70
2018-12-25T19:00:13.726Z,82.00
2018-12-25T19:02:42.427Z,81.54
2018-12-25T19:05:11.087Z,81.49
2018-12-25T19:07:39.839Z,80.86
2018-12-25T19:10:48.479Z,81.40
2018-12-25T19:13:29.554Z,80.99
2018-12-25T19:15:48.262Z,81.46
2018-12-25T19:18:17.215Z,81.50
2018-12-25T19:20:45.827Z,81.53
2018-12-25T19:23:14.483Z,81.45
2018-12-25T19:25:43.152Z,81.38
2018-12-25T19:28:11.861Z,81.47
2018-12-25T19:33:15.999Z,81.60
2018-12-25T19:35:44.673Z,82.12
2018-12-25T19:38:13.594Z,81.52
2018-12-25T19:40:42.835Z,81.91
2018-12-25T19:43:12.214Z,81.32
2018-12-25T19:45:40.885Z,81.74
2018-12-25T19:48:09.553Z,81.12
2018-12-25T19:50:38.242Z,80.87
2018-12-25T19:53:06.967Z,81.12
2018-12-25T19:55:36.003Z,81.37
2018-12-25T20:00:39.826Z,80.40
2018-12-25T20:03:08.509Z,80.40
2018-12-25T20:06:17.163Z,80.15
2018-12-25T20:09:26.179Z,80.31
2018-12-25T20:12:33.699Z,80.28
2018-12-25T20:15:42.359Z,80.18
2018-12-25T20:18:51.232Z,80.36
2018-12-25T20:25:29.945Z,80.55
2018-12-25T20:31:28.153Z,80.62
2018-12-25T20:37:51.505Z,80.27
2018-12-25T20:41:01.819Z,80.17
2018-12-25T20:47:22.755Z,80.14
2018-12-25T20:50:30.034Z,80.11
2018-12-25T20:53:38.736Z,79.81
2018-12-25T20:56:47.012Z,79.85
2018-12-25T20:59:54.534Z,80.02
2018-12-25T21:03:03.164Z,80.35
2018-12-25T21:06:10.456Z,80.33
2018-12-25T21:09:00.136Z,80.45
2018-12-25T21:12:08.719Z,80.37
2018-12-25T21:15:17.641Z,80.44
2018-12-25T21:18:24.993Z,80.14
2018-12-25T21:21:32.323Z,80.22
2018-12-25T21:24:39.743Z,80.07
2018-12-25T21:27:47.020Z,79.86
2018-12-25T21:30:15.767Z,80.06
2018-12-25T21:32:44.399Z,79.97
2018-12-25T21:35:52.996Z,79.96
2018-12-25T21:38:21.809Z,80.12
2018-12-25T21:40:50.508Z,80.24
2018-12-25T21:43:19.806Z,79.92
2018-12-25T21:45:48.561Z,79.61
2018-12-25T21:48:57.166Z,79.44
2018-12-25T21:51:25.921Z,79.51
2018-12-25T21:53:54.660Z,79.56
2018-12-25T21:56:23.511Z,79.54
2018-12-25T21:58:52.161Z,79.87
2018-12-25T22:01:20.833Z,79.44
2018-12-25T22:06:25.376Z,79.00
2018-12-25T22:08:53.983Z,79.21
2018-12-25T22:11:22.630Z,79.19
2018-12-25T22:13:51.270Z,79.27
2018-12-25T22:16:20.015Z,79.53
2018-12-25T22:18:48.706Z,79.68
2018-12-25T22:21:17.396Z,79.65
2018-12-25T22:23:46.179Z,79.74
2018-12-25T22:26:14.923Z,79.83
2018-12-25T22:28:43.594Z,79.90
2018-12-25T22:31:12.336Z,79.87
2018-12-25T22:33:41.061Z,79.96
2018-12-25T22:36:09.761Z,79.84
2018-12-25T22:38:38.436Z,79.84
2018-12-25T22:41:06.985Z,79.89
2018-12-25T22:43:35.582Z,79.87
2018-12-25T22:46:04.224Z,79.85
2018-12-25T22:48:33.292Z,80.32
2018-12-25T22:51:01.983Z,80.17
2018-12-25T22:53:30.732Z,79.83
2018-12-25T22:55:59.330Z,80.05
2018-12-25T22:58:27.990Z,80.24
2018-12-25T23:00:56.656Z,80.27
2018-12-25T23:03:27.471Z,80.39
2018-12-25T23:05:55.676Z,80.39
2018-12-25T23:08:24.225Z,80.43
2018-12-25T23:10:52.901Z,80.87
2018-12-25T23:13:21.478Z,80.66
2018-12-25T23:15:50.043Z,80.64
2018-12-25T23:18:18.675Z,80.52
2018-12-25T23:20:47.348Z,80.67
2018-12-25T23:23:16.340Z,80.85
2018-12-25T23:25:44.989Z,80.96
2018-12-25T23:28:13.548Z,80.57
2018-12-25T23:30:42.236Z,80.87
2018-12-25T23:33:10.898Z,80.97
2018-12-25T23:35:39.537Z,81.12
2018-12-25T23:38:08.082Z,81.27
2018-12-25T23:40:36.730Z,81.11
2018-12-25T23:43:05.388Z,81.15
2018-12-25T23:45:34.138Z,80.65
2018-12-25T23:48:02.795Z,80.75
2018-12-25T23:50:31.453Z,80.44
2018-12-25T23:53:00.109Z,81.00
2018-12-25T23:55:28.887Z,80.97
2018-12-25T23:57:57.483Z,81.01
